Time;durP1;ratioP1;P1;durP2;ratioP2;P2;SDS_P1;SDS_P2;PMS_P1;PMS_P2;Temp;Humidity;BMP_temperature;BMP_pressure;BME280_temperature;BME280_humidity;BME280_pressure;Samples;Min_cycle;Max_cycle;Signal;HPM_P1;HPM_P2
2022/03/31 00:01:31;;;;;;;39.18;24.82;;;;;;;5.27;91.99;98481.45;1733804;82;20985;-70
2022/03/31 00:03:59;;;;;;;39.65;25.50;;;;;;;5.26;92.08;98488.05;1734426;82;21020;-73
2022/03/31 00:06:31;;;;;;;38.15;25.20;;;;;;;5.28;92.21;98478.99;1739746;82;21041;-68
2022/03/31 00:08:58;;;;;;;39.80;24.95;;;;;;;5.33;92.55;98487.62;1739710;82;21760;-72
2022/03/31 00:11:27;;;;;;;41.60;26.45;;;;;;;5.36;92.64;98471.41;1739281;82;20874;-73
2022/03/31 00:13:55;;;;;;;44.15;26.42;;;;;;;5.41;92.77;98469.69;1739756;82;21048;-71
2022/03/31 00:16:23;;;;;;;38.42;24.35;;;;;;;5.45;92.75;98458.37;1739861;82;20945;-69
2022/03/31 00:18:52;;;;;;;32.40;21.52;;;;;;;5.50;92.90;98456.06;1739754;82;20949;-72
2022/03/31 00:21:23;;;;;;;30.55;20.60;;;;;;;5.55;92.88;98465.50;1736441;82;21058;-73
2022/03/31 00:23:51;;;;;;;31.45;21.90;;;;;;;5.57;92.83;98465.45;1740031;82;20981;-68
2022/03/31 00:26:22;;;;;;;35.68;22.55;;;;;;;5.58;92.86;98449.28;1740588;82;20897;-71
2022/03/31 00:28:52;;;;;;;30.05;20.37;;;;;;;5.62;92.94;98458.22;1737734;82;21490;-67
2022/03/31 00:31:20;;;;;;;32.48;20.85;;;;;;;5.60;92.67;98468.10;1738597;82;20930;-70
2022/03/31 00:33:53;;;;;;;30.43;20.50;;;;;;;5.59;92.76;98479.61;1740110;82;21442;-66
2022/03/31 00:36:20;;;;;;;34.10;21.48;;;;;;;5.61;92.79;98472.47;1721494;82;20969;-71
2022/03/31 00:41:37;;;;;;;27.27;19.07;;;;;;;5.64;92.71;98472.39;1739972;82;20954;-73
2022/03/31 00:44:10;;;;;;;29.18;19.42;;;;;;;5.64;92.80;98465.55;1739317;82;20934;-73
2022/03/31 00:46:52;;;;;;;26.25;17.15;;;;;;;5.65;92.80;98479.45;1739789;82;21014;-70
2022/03/31 00:49:26;;;;;;;30.52;19.40;;;;;;;5.65;92.83;98490.39;1739860;82;20980;-67
2022/03/31 00:51:54;;;;;;;31.27;20.17;;;;;;;5.65;92.94;98478.91;1739754;82;20985;-69
2022/03/31 00:54:25;;;;;;;31.55;20.77;;;;;;;5.65;93.04;98493.94;1739525;82;20934;-69
2022/03/31 00:56:52;;;;;;;33.30;21.17;;;;;;;5.68;93.17;98493.89;1740168;82;20992;-72
2022/03/31 00:59:22;;;;;;;30.70;20.35;;;;;;;5.68;92.97;98482.95;1739595;82;21569;-69
2022/03/31 01:01:52;;;;;;;28.12;19.73;;;;;;;5.68;92.97;98474.75;1736782;82;20977;-72
2022/03/31 01:04:19;;;;;;;36.28;21.70;;;;;;;5.70;93.00;98488.89;1745500;82;21041;-71
2022/03/31 01:06:54;;;;;;;34.15;20.23;;;;;;;5.70;92.90;98483.42;1739654;82;21040;-72
2022/03/31 01:09:22;;;;;;;32.48;21.50;;;;;;;5.68;92.65;98467.92;1739818;82;21061;-72
2022/03/31 01:12:02;;;;;;;33.98;21.45;;;;;;;5.65;92.63;98454.30;1711584;82;21506;-73
2022/03/31 01:14:41;;;;;;;33.63;21.70;;;;;;;5.66;92.50;98451.84;1739729;82;20977;-72
2022/03/31 01:17:09;;;;;;;27.67;19.85;;;;;;;5.66;92.54;98449.66;1739450;82;20890;-72
2022/03/31 01:19:36;;;;;;;32.53;20.68;;;;;;;5.66;92.50;98450.47;1739796;82;20932;-72
2022/03/31 01:22:04;;;;;;;29.52;18.42;;;;;;;5.68;92.58;98442.74;1740228;82;20973;-73
2022/03/31 01:24:41;;;;;;;29.05;19.25;;;;;;;5.70;92.64;98443.79;1736258;82;20926;-72
2022/03/31 01:27:14;;;;;;;29.42;21.00;;;;;;;5.75;92.81;98466.11;1739206;82;21053;-72
2022/03/31 01:29:48;;;;;;;30.12;20.12;;;;;;;5.79;92.97;98473.91;1738368;82;21000;-70
2022/03/31 01:32:15;;;;;;;30.52;21.30;;;;;;;5.80;92.78;98452.30;1745695;82;20905;-70
2022/03/31 01:34:43;;;;;;;31.23;20.80;;;;;;;5.79;92.63;98444.66;1739529;82;21583;-68
2022/03/31 01:37:13;;;;;;;33.60;22.02;;;;;;;5.81;92.58;98447.07;1745352;82;21988;-70
2022/03/31 01:39:40;;;;;;;35.83;20.62;;;;;;;5.82;92.61;98450.86;1739886;82;20929;-71
2022/03/31 01:42:09;;;;;;;28.32;19.52;;;;;;;5.85;92.58;98451.59;1739492;82;21040;-69
2022/03/31 01:44:35;;;;;;;32.75;20.75;;;;;;;5.85;92.26;98444.75;1739670;82;20944;-70
2022/03/31 01:47:03;;;;;;;33.30;19.40;;;;;;;5.84;92.03;98444.52;1739083;82;21437;-72
2022/03/31 01:49:32;;;;;;;33.70;20.45;;;;;;;5.82;91.76;98440.47;1739548;82;21132;-70
2022/03/31 01:52:02;;;;;;;33.05;20.25;;;;;;;5.77;91.72;98431.86;1735723;82;21455;-69
2022/03/31 01:54:31;;;;;;;29.87;19.52;;;;;;;5.72;91.62;98430.63;1739422;82;20917;-68
2022/03/31 01:57:00;;;;;;;30.00;19.07;;;;;;;5.68;91.97;98420.88;1739524;82;20937;-71
2022/03/31 01:59:35;;;;;;;34.15;21.02;;;;;;;5.68;92.15;98412.67;1739482;82;20990;-70
2022/03/31 02:02:02;;;;;;;32.95;20.57;;;;;;;5.69;92.37;98407.47;1739883;82;21194;-72
2022/03/31 02:04:30;;;;;;;29.25;18.65;;;;;;;5.69;92.33;98399.27;1739477;82;20905;-71
2022/03/31 02:07:02;;;;;;;31.57;18.40;;;;;;;5.67;92.42;98408.89;1737508;82;21020;-72
2022/03/31 02:09:30;;;;;;;38.88;21.55;;;;;;;5.69;92.67;98401.19;1739337;82;21008;-71
2022/03/31 02:11:58;;;;;;;31.02;19.50;;;;;;;5.72;92.72;98396.45;1739448;82;20961;-72
2022/03/31 02:14:30;;;;;;;34.08;20.82;;;;;;;5.74;92.75;98387.39;1736358;82;21025;-72
2022/03/31 02:16:56;;;;;;;28.47;18.27;;;;;;;5.78;92.86;98380.18;1739876;82;20961;-71
2022/03/31 02:19:24;;;;;;;33.78;20.62;;;;;;;5.81;92.87;98371.34;1739352;82;20874;-69
2022/03/31 02:21:52;;;;;;;33.67;19.20;;;;;;;5.85;92.91;98364.10;1739665;82;21064;-70
2022/03/31 02:24:19;;;;;;;32.30;21.12;;;;;;;5.89;92.86;98359.36;1720659;82;21048;-70
2022/03/31 02:26:47;;;;;;;32.00;21.48;;;;;;;5.91;92.80;98353.02;1739678;82;21189;-72
2022/03/31 02:29:15;;;;;;;33.28;21.82;;;;;;;5.92;92.72;98351.33;1739243;82;21439;-71
2022/03/31 02:31:42;;;;;;;35.80;21.37;;;;;;;5.94;92.60;98341.45;1739607;82;21017;-71
2022/03/31 02:34:11;;;;;;;31.97;21.33;;;;;;;5.94;92.54;98329.14;1739595;82;20996;-71
2022/03/31 02:36:44;;;;;;;32.78;20.90;;;;;;;5.95;92.54;98322.56;1744590;82;20957;-70
2022/03/31 02:39:14;;;;;;;35.52;21.50;;;;;;;5.97;92.49;98320.33;1720711;82;21823;-69
2022/03/31 02:41:42;;;;;;;36.60;21.07;;;;;;;5.99;92.38;98320.79;1720689;82;21454;-71
2022/03/31 02:44:16;;;;;;;27.65;18.42;;;;;;;6.01;92.30;98317.18;1739700;82;20921;-70
2022/03/31 02:46:47;;;;;;;28.62;18.15;;;;;;;6.03;92.26;98326.43;1717327;82;20925;-70
2022/03/31 02:49:13;;;;;;;30.08;18.37;;;;;;;6.05;92.23;98326.95;1739543;82;20945;-72
2022/03/31 02:51:40;;;;;;;28.17;17.50;;;;;;;6.06;92.17;98323.90;1739349;82;21016;-72
2022/03/31 02:56:53;;;;;;;29.45;18.85;;;;;;;6.08;91.95;98339.44;1686455;84;20966;-69
2022/03/31 02:59:24;;;;;;;33.85;19.42;;;;;;;6.09;92.11;98342.40;1739132;82;20929;-72
2022/03/31 03:01:57;;;;;;;31.48;20.27;;;;;;;6.09;92.12;98334.20;1736658;82;20989;-71
2022/03/31 03:04:27;;;;;;;29.52;17.95;;;;;;;6.11;92.06;98329.77;1739552;82;21130;-71
2022/03/31 03:06:58;;;;;;;33.20;19.62;;;;;;;6.09;91.95;98333.38;1708750;82;20968;-73
2022/03/31 03:09:33;;;;;;;33.95;20.80;;;;;;;6.04;91.89;98334.31;1695069;84;21505;-70
2022/03/31 03:12:06;;;;;;;35.70;20.05;;;;;;;6.00;91.89;98337.45;1699038;83;21526;-68
2022/03/31 03:14:45;;;;;;;29.92;20.10;;;;;;;5.97;92.11;98336.15;1699142;84;20882;-73
2022/03/31 03:17:18;;;;;;;35.40;21.20;;;;;;;5.97;92.34;98341.62;1703493;83;21248;-71
2022/03/31 03:19:48;;;;;;;31.82;21.45;;;;;;;5.95;92.37;98334.88;1698898;84;20938;-73
2022/03/31 03:22:17;;;;;;;32.88;20.95;;;;;;;5.92;92.45;98337.66;1699053;83;21411;-72
2022/03/31 03:24:43;;;;;;;31.70;20.50;;;;;;;5.91;92.65;98336.62;1698860;84;20966;-69
2022/03/31 03:27:11;;;;;;;33.78;21.95;;;;;;;5.87;92.64;98329.61;1698817;84;20942;-72
2022/03/31 03:29:46;;;;;;;36.13;20.37;;;;;;;5.85;92.83;98330.52;1697081;84;21458;-72
2022/03/31 03:32:15;;;;;;;32.00;20.17;;;;;;;5.82;92.88;98319.63;1695714;84;20943;-73
2022/03/31 03:34:42;;;;;;;29.57;19.50;;;;;;;5.78;92.98;98317.30;1699276;84;20950;-73
2022/03/31 03:37:11;;;;;;;34.20;20.05;;;;;;;5.80;93.19;98315.62;1697493;84;21048;-72
2022/03/31 03:39:38;;;;;;;30.85;20.52;;;;;;;5.79;93.33;98312.07;1699045;84;21096;-71
2022/03/31 03:42:07;;;;;;;32.75;19.95;;;;;;;5.80;93.58;98304.69;1698976;83;21069;-73
2022/03/31 03:44:39;;;;;;;30.77;19.62;;;;;;;5.83;93.90;98300.73;1695625;83;20985;-70
2022/03/31 03:47:07;;;;;;;26.37;18.27;;;;;;;5.88;94.15;98294.33;1699139;84;20926;-70
2022/03/31 03:49:33;;;;;;;30.02;18.73;;;;;;;5.94;94.25;98290.31;1699023;84;20970;-73
2022/03/31 03:52:00;;;;;;;25.85;17.77;;;;;;;5.99;94.30;98287.19;1698948;84;21483;-73
2022/03/31 03:54:27;;;;;;;29.45;16.80;;;;;;;6.04;94.41;98283.72;1699333;84;21119;-73
2022/03/31 03:56:55;;;;;;;24.37;15.72;;;;;;;6.09;94.48;98286.33;1698908;83;21431;-73
2022/03/31 03:59:21;;;;;;;30.75;17.92;;;;;;;6.13;94.48;98274.19;1698837;84;20990;-72
2022/03/31 04:01:51;;;;;;;28.40;19.00;;;;;;;6.17;94.45;98273.80;1698179;83;21121;-73
2022/03/31 04:04:19;;;;;;;27.45;17.17;;;;;;;6.19;94.31;98260.59;1699379;83;20986;-73
2022/03/31 04:06:46;;;;;;;31.45;17.48;;;;;;;6.21;94.26;98253.42;1701607;83;21120;-73
2022/03/31 04:09:14;;;;;;;24.47;16.27;;;;;;;6.21;94.12;98254.80;1703605;83;20953;-73
2022/03/31 04:11:42;;;;;;;28.60;18.42;;;;;;;6.21;94.03;98237.83;1704196;83;20996;-71
2022/03/31 04:14:09;;;;;;;30.57;18.42;;;;;;;6.21;94.13;98240.56;1703742;83;20970;-70
2022/03/31 04:16:38;;;;;;;26.95;16.85;;;;;;;6.25;94.07;98236.62;1703855;83;20960;-72
2022/03/31 04:19:22;;;;;;;32.05;18.67;;;;;;;6.27;94.13;98243.95;1697482;84;20949;-70
2022/03/31 04:21:49;;;;;;;27.35;17.70;;;;;;;6.30;93.95;98237.02;1675215;84;21087;-71
2022/03/31 04:24:15;;;;;;;25.92;16.87;;;;;;;6.30;93.93;98229.62;1704240;84;21421;-73
2022/03/31 04:26:43;;;;;;;31.57;18.20;;;;;;;6.31;93.88;98225.75;1675627;84;21020;-71
2022/03/31 04:29:11;;;;;;;29.02;18.45;;;;;;;6.33;93.91;98233.08;1704225;83;21052;-71
2022/03/31 04:31:43;;;;;;;28.87;17.77;;;;;;;6.35;93.86;98223.76;1703812;84;21044;-70
2022/03/31 04:34:15;;;;;;;28.85;18.52;;;;;;;6.38;93.78;98234.05;1703663;83;20933;-72
2022/03/31 04:36:45;;;;;;;30.68;17.87;;;;;;;6.38;93.68;98212.16;1703988;84;20992;-71
2022/03/31 04:39:13;;;;;;;34.38;20.02;;;;;;;6.37;93.63;98211.34;1703727;83;20905;-70
2022/03/31 04:41:43;;;;;;;25.75;17.75;;;;;;;6.38;93.54;98206.69;1704172;83;20988;-69
2022/03/31 04:44:11;;;;;;;30.00;19.70;;;;;;;6.35;93.49;98200.50;1703616;84;21170;-70
2022/03/31 04:46:38;;;;;;;34.92;20.68;;;;;;;6.33;93.47;98192.03;1703874;83;20972;-71
2022/03/31 04:49:05;;;;;;;27.00;17.90;;;;;;;6.31;93.40;98195.66;1704104;83;20905;-73
2022/03/31 04:51:32;;;;;;;30.15;18.65;;;;;;;6.31;93.41;98192.13;1703571;84;20997;-71
2022/03/31 04:54:00;;;;;;;32.45;20.25;;;;;;;6.30;93.39;98191.32;1704357;83;20960;-71
2022/03/31 04:56:27;;;;;;;27.37;18.20;;;;;;;6.31;93.36;98190.19;1704169;83;21095;-72
2022/03/31 04:58:55;;;;;;;30.52;19.65;;;;;;;6.30;93.30;98188.59;1703717;83;20897;-70
2022/03/31 05:01:35;;;;;;;34.70;18.32;;;;;;;6.30;93.20;98193.24;1697549;84;20933;-71
2022/03/31 05:04:03;;;;;;;29.95;18.12;;;;;;;6.30;93.28;98198.72;1703750;83;21068;-73
2022/03/31 05:06:30;;;;;;;31.27;18.15;;;;;;;6.29;93.29;98196.56;1704041;82;20949;-68
2022/03/31 05:09:00;;;;;;;25.45;17.55;;;;;;;6.30;93.25;98193.24;1703797;84;21080;-72
2022/03/31 05:11:30;;;;;;;29.23;18.80;;;;;;;6.32;93.28;98201.94;1703741;84;21019;-69
2022/03/31 05:13:59;;;;;;;27.10;17.32;;;;;;;6.33;93.30;98200.25;1703859;84;20862;-71
2022/03/31 05:16:41;;;;;;;29.63;17.35;;;;;;;6.36;93.25;98204.83;1676032;84;21065;-72
2022/03/31 05:19:09;;;;;;;27.70;17.75;;;;;;;6.37;93.21;98199.59;1703680;84;21076;-70
2022/03/31 05:21:40;;;;;;;29.12;17.73;;;;;;;6.39;93.07;98209.66;1703886;84;20982;-69
2022/03/31 05:24:08;;;;;;;28.80;18.20;;;;;;;6.39;93.01;98202.81;1703613;84;20968;-70
2022/03/31 05:26:36;;;;;;;24.92;17.80;;;;;;;6.41;93.05;98215.06;1703913;84;20950;-72
2022/03/31 05:29:06;;;;;;;32.75;19.23;;;;;;;6.42;93.01;98206.27;1703969;84;20988;-71
2022/03/31 05:31:34;;;;;;;28.75;18.15;;;;;;;6.41;92.84;98201.38;1703933;84;20969;-72
2022/03/31 05:34:01;;;;;;;29.50;17.65;;;;;;;6.41;92.71;98201.93;1704205;84;21177;-73
2022/03/31 05:36:30;;;;;;;23.22;16.57;;;;;;;6.40;92.65;98203.85;1703712;84;21052;-71
2022/03/31 05:38:57;;;;;;;26.93;18.12;;;;;;;6.39;92.56;98199.52;1703714;84;21004;-67
2022/03/31 05:41:24;;;;;;;27.85;17.50;;;;;;;6.40;92.51;98200.30;1703689;84;21481;-73
2022/03/31 05:43:52;;;;;;;23.70;16.52;;;;;;;6.41;92.53;98193.17;1703601;84;21094;-71
2022/03/31 05:46:21;;;;;;;24.92;16.77;;;;;;;6.43;92.48;98188.15;1703823;84;21605;-71
2022/03/31 05:48:48;;;;;;;25.82;16.32;;;;;;;6.45;92.48;98193.30;1703723;84;21547;-66
2022/03/31 05:51:19;;;;;;;23.67;15.88;;;;;;;6.47;92.49;98193.78;1703507;84;20984;-72
2022/03/31 05:53:49;;;;;;;24.32;15.45;;;;;;;6.51;92.42;98202.15;1683901;84;21011;-73
2022/03/31 05:56:18;;;;;;;24.05;15.72;;;;;;;6.54;92.38;98203.67;1657443;84;20993;-73
2022/03/31 05:58:45;;;;;;;26.30;16.37;;;;;;;6.57;92.32;98198.10;1703915;84;21870;-71
2022/03/31 06:01:14;;;;;;;22.35;15.98;;;;;;;6.61;92.33;98197.70;1703613;84;20980;-69
2022/03/31 06:03:42;;;;;;;23.40;15.72;;;;;;;6.63;92.28;98198.19;1703941;84;21553;-71
2022/03/31 06:06:10;;;;;;;22.93;15.48;;;;;;;6.67;92.21;98195.61;1706198;82;20972;-68
2022/03/31 06:08:37;;;;;;;23.18;15.30;;;;;;;6.73;92.28;98194.29;1734314;82;20900;-69
2022/03/31 06:11:06;;;;;;;23.05;15.70;;;;;;;6.82;92.41;98189.58;1734271;82;21042;-72
2022/03/31 06:13:35;;;;;;;27.80;17.25;;;;;;;6.94;92.53;98181.26;1734137;82;21396;-73
2022/03/31 06:16:04;;;;;;;26.37;16.87;;;;;;;7.07;92.57;98168.47;1734905;81;20916;-69
2022/03/31 06:18:32;;;;;;;26.45;17.10;;;;;;;7.20;92.65;98163.09;1734641;82;20964;-68
2022/03/31 06:21:01;;;;;;;27.60;16.50;;;;;;;7.31;92.59;98169.80;1712491;82;21004;-72
2022/03/31 06:23:30;;;;;;;20.35;14.80;;;;;;;7.43;92.42;98173.19;1733889;82;21027;-72
2022/03/31 06:26:01;;;;;;;22.85;14.58;;;;;;;7.52;92.20;98174.52;1734292;82;20964;-69
2022/03/31 06:28:31;;;;;;;22.40;15.25;;;;;;;7.62;91.88;98187.83;1733866;82;21484;-68
2022/03/31 06:31:04;;;;;;;23.87;16.20;;;;;;;7.70;91.71;98175.75;1734230;82;22216;-72
2022/03/31 06:33:34;;;;;;;25.62;17.15;;;;;;;7.78;91.47;98190.77;1734353;82;21468;-72
2022/03/31 06:36:07;;;;;;;24.75;15.45;;;;;;;7.87;91.13;98177.55;1733231;82;21137;-69
2022/03/31 06:38:35;;;;;;;20.57;14.10;;;;;;;7.95;90.81;98175.90;1734308;82;20908;-68
2022/03/31 06:41:13;;;;;;;23.55;16.27;;;;;;;8.01;90.51;98172.62;1734552;81;21440;-73
2022/03/31 06:43:43;;;;;;;22.13;16.07;;;;;;;8.09;90.42;98161.32;1733947;82;20876;-73
2022/03/31 06:46:11;;;;;;;23.57;15.58;;;;;;;8.19;90.24;98157.94;1734265;82;21031;-71
2022/03/31 06:48:42;;;;;;;24.10;15.75;;;;;;;8.25;89.99;98155.20;1713994;82;21437;-72
2022/03/31 06:51:10;;;;;;;28.05;16.65;;;;;;;8.33;90.09;98159.00;1734011;82;20889;-71
2022/03/31 06:53:53;;;;;;;24.52;15.15;;;;;;;8.42;89.89;98161.66;1729785;82;20975;-67
2022/03/31 06:56:23;;;;;;;25.52;15.45;;;;;;;8.51;89.78;98156.89;1734411;82;20916;-71
2022/03/31 06:58:52;;;;;;;20.88;14.45;;;;;;;8.61;89.54;98156.49;1734704;82;20912;-68
2022/03/31 07:01:21;;;;;;;24.92;16.20;;;;;;;8.71;89.26;98162.11;1734335;82;21189;-69
2022/03/31 07:03:53;;;;;;;23.92;16.60;;;;;;;8.80;88.93;98161.20;1734111;82;21063;-73
2022/03/31 07:06:22;;;;;;;25.30;17.02;;;;;;;8.89;88.77;98161.33;1734548;82;21008;-70
2022/03/31 07:08:51;;;;;;;23.73;15.95;;;;;;;8.98;88.34;98171.40;1734718;81;20943;-73
2022/03/31 07:11:20;;;;;;;25.77;16.52;;;;;;;9.03;87.81;98158.81;1713971;82;20944;-70
2022/03/31 07:13:50;;;;;;;24.57;16.75;;;;;;;9.09;87.25;98156.65;1731204;82;20976;-73
2022/03/31 07:16:20;;;;;;;25.55;16.55;;;;;;;9.16;87.19;98161.57;1734577;82;20900;-69
2022/03/31 07:18:53;;;;;;;22.67;16.30;;;;;;;9.24;86.89;98151.84;1734696;82;20955;-68
2022/03/31 07:21:26;;;;;;;29.98;18.37;;;;;;;9.33;86.43;98153.66;1734748;82;20909;-71
2022/03/31 07:23:55;;;;;;;25.60;17.32;;;;;;;9.38;86.23;98158.33;1734843;82;21244;-68
2022/03/31 07:26:24;;;;;;;29.77;19.40;;;;;;;9.47;85.96;98155.47;1734659;82;21956;-71
2022/03/31 07:28:55;;;;;;;30.23;19.85;;;;;;;9.52;85.64;98159.14;1734628;82;21417;-72
2022/03/31 07:31:28;;;;;;;32.00;21.25;;;;;;;9.57;85.42;98159.68;1734930;82;20956;-72
2022/03/31 07:33:56;;;;;;;33.45;24.27;;;;;;;9.64;85.23;98153.59;1734725;82;20960;-72
2022/03/31 07:36:25;;;;;;;34.83;24.02;;;;;;;9.74;84.84;98146.83;1734515;82;20960;-73
2022/03/31 07:38:55;;;;;;;36.73;24.40;;;;;;;9.79;84.46;98147.16;1734660;82;21055;-70
2022/03/31 07:41:22;;;;;;;37.40;24.25;;;;;;;9.81;83.96;98140.14;1714063;82;20869;-70
2022/03/31 07:43:50;;;;;;;36.55;23.47;;;;;;;9.84;83.86;98142.78;1737290;82;21026;-71
2022/03/31 07:46:18;;;;;;;31.02;23.00;;;;;;;9.90;83.76;98141.37;1734607;82;21024;-70
2022/03/31 07:48:49;;;;;;;38.35;25.37;;;;;;;9.97;83.45;98136.09;1734642;82;20922;-73
2022/03/31 07:51:23;;;;;;;33.95;24.45;;;;;;;10.03;83.17;98141.34;1734528;82;21227;-71
2022/03/31 07:53:54;;;;;;;36.98;26.85;;;;;;;10.06;82.88;98142.02;1734759;82;20956;-73
2022/03/31 07:56:25;;;;;;;30.92;22.95;;;;;;;10.11;82.92;98133.51;1734656;82;21456;-71
2022/03/31 07:58:55;;;;;;;32.42;23.32;;;;;;;10.17;82.85;98127.16;1734570;82;20892;-71
2022/03/31 08:01:24;;;;;;;30.68;22.27;;;;;;;10.23;82.63;98126.55;1734799;82;21504;-71
2022/03/31 08:03:54;;;;;;;34.48;24.75;;;;;;;10.33;82.68;98118.95;1734670;82;21204;-70
2022/03/31 08:06:27;;;;;;;29.25;21.37;;;;;;;10.43;82.37;98122.56;1734690;82;20896;-71
2022/03/31 08:08:59;;;;;;;34.20;24.05;;;;;;;10.49;81.71;98122.33;1734103;82;20912;-71
2022/03/31 08:11:36;;;;;;;36.55;24.25;;;;;;;10.58;81.65;98115.50;1670197;85;21088;-70
2022/03/31 08:14:09;;;;;;;31.48;23.47;;;;;;;10.73;81.74;98125.48;1714365;82;20968;-70
2022/03/31 08:16:50;;;;;;;33.53;23.10;;;;;;;10.85;80.91;98135.62;1729090;82;20909;-71
2022/03/31 08:19:20;;;;;;;34.45;22.70;;;;;;;10.89;80.20;98126.06;1690370;82;20901;-72
2022/03/31 08:21:53;;;;;;;30.17;22.22;;;;;;;10.93;79.69;98129.72;1734357;81;20928;-68
2022/03/31 08:24:43;;;;;;;29.20;22.40;;;;;;;10.99;79.06;98128.85;1733004;82;20928;-69
2022/03/31 08:27:17;;;;;;;35.68;24.20;;;;;;;10.94;79.18;98128.55;1712941;82;21483;-68
2022/03/31 08:29:47;;;;;;;34.55;25.02;;;;;;;11.06;79.56;98136.73;1738157;82;21871;-71
2022/03/31 08:32:20;;;;;;;30.68;23.15;;;;;;;11.19;78.52;98129.75;1732851;82;20861;-68
2022/03/31 08:34:50;;;;;;;32.25;24.23;;;;;;;11.23;78.23;98130.61;1734102;82;21011;-68
2022/03/31 08:37:18;;;;;;;30.48;22.85;;;;;;;11.21;77.64;98128.79;1713078;82;21466;-70
2022/03/31 08:39:52;;;;;;;37.15;25.90;;;;;;;11.23;77.59;98123.72;1732107;82;20900;-71
2022/03/31 08:42:19;;;;;;;31.93;23.73;;;;;;;11.33;77.84;98122.36;1734457;82;21508;-70
2022/03/31 08:44:51;;;;;;;32.40;25.02;;;;;;;11.43;77.97;98117.67;1733978;82;20821;-71
2022/03/31 08:47:22;;;;;;;34.60;26.20;;;;;;;11.56;77.17;98125.83;1733603;82;20892;-70
2022/03/31 08:49:55;;;;;;;34.53;26.42;;;;;;;11.67;76.66;98123.28;1713563;82;20972;-70
2022/03/31 08:52:26;;;;;;;40.83;28.57;;;;;;;11.69;76.36;98125.10;1734310;82;21543;-70
2022/03/31 08:55:02;;;;;;;37.08;26.45;;;;;;;11.78;76.10;98130.42;1734318;82;21393;-68
2022/03/31 08:57:44;;;;;;;30.77;23.80;;;;;;;11.86;75.97;98125.27;1734162;82;20955;-66
2022/03/31 09:00:15;;;;;;;38.23;24.87;;;;;;;11.93;75.29;98125.41;1734101;82;21019;-73
2022/03/31 09:03:05;;;;;;;34.78;25.05;;;;;;;12.03;75.31;98112.18;1733758;82;20977;-69
2022/03/31 09:05:50;;;;;;;34.65;27.35;;;;;;;12.13;74.89;98113.60;1729695;82;21547;-70
2022/03/31 09:08:17;;;;;;;34.85;26.40;;;;;;;12.22;75.06;98105.88;1734507;82;21096;-72
2022/03/31 09:10:50;;;;;;;33.67;24.77;;;;;;;12.35;74.69;98110.64;1734159;82;20865;-70
2022/03/31 09:13:30;;;;;;;32.93;24.80;;;;;;;12.44;74.61;98104.08;1734453;82;20952;-70
2022/03/31 09:16:13;;;;;;;31.97;24.00;;;;;;;12.54;74.20;98104.28;1733714;82;20900;-70
2022/03/31 09:18:45;;;;;;;30.10;23.92;;;;;;;12.68;74.29;98095.20;1731757;82;21445;-70
2022/03/31 09:21:22;;;;;;;33.40;25.35;;;;;;;12.89;74.27;98100.30;1733869;82;21224;-72
2022/03/31 09:23:48;;;;;;;34.55;23.83;;;;;;;13.08;73.66;98096.66;1712854;82;21496;-69
2022/03/31 09:26:17;;;;;;;38.38;25.35;;;;;;;13.25;72.59;98097.29;1733910;82;21011;-69
2022/03/31 09:28:45;;;;;;;28.83;22.65;;;;;;;13.36;71.48;98104.34;1735752;81;21000;-71
2022/03/31 09:31:27;;;;;;;32.55;24.90;;;;;;;13.37;70.73;98102.58;1734049;82;20904;-73
2022/03/31 09:33:59;;;;;;;35.33;24.07;;;;;;;13.44;70.60;98094.19;1734369;82;21149;-69
2022/03/31 09:36:36;;;;;;;34.78;23.65;;;;;;;13.43;69.60;98096.15;1730680;82;20963;-70
2022/03/31 09:39:09;;;;;;;32.93;23.07;;;;;;;13.38;69.67;98097.86;1712965;82;20920;-73
2022/03/31 09:41:46;;;;;;;30.97;22.45;;;;;;;13.44;69.52;98104.65;1733664;82;21403;-71
2022/03/31 09:44:22;;;;;;;28.73;19.92;;;;;;;13.52;69.27;98094.52;1734040;82;21059;-72
2022/03/31 09:46:54;;;;;;;32.38;22.50;;;;;;;13.62;68.87;98097.21;1729909;82;21402;-71
2022/03/31 09:49:28;;;;;;;32.60;21.60;;;;;;;13.71;68.62;98094.17;1733618;82;21441;-69
2022/03/31 09:52:08;;;;;;;30.35;21.37;;;;;;;13.75;67.41;98101.91;1713581;82;20964;-73
2022/03/31 09:54:37;;;;;;;29.77;21.25;;;;;;;13.78;67.31;98090.69;1706119;82;21434;-72
2022/03/31 09:57:10;;;;;;;27.22;20.70;;;;;;;13.84;67.13;98091.36;1733736;82;20926;-73
2022/03/31 09:59:44;;;;;;;33.05;23.70;;;;;;;13.93;66.47;98085.55;1730913;82;20908;-73
2022/03/31 10:02:11;;;;;;;32.45;21.25;;;;;;;14.00;66.17;98086.98;1734390;82;20951;-72
2022/03/31 10:04:46;;;;;;;29.18;21.60;;;;;;;14.11;65.81;98085.73;1733927;82;21004;-72
2022/03/31 10:07:36;;;;;;;42.70;21.82;;;;;;;14.21;66.11;98084.86;1729968;82;20969;-68
2022/03/31 10:10:08;;;;;;;46.33;22.32;;;;;;;14.34;65.74;98085.37;1713417;82;21412;-73
2022/03/31 10:12:44;;;;;;;36.50;21.25;;;;;;;14.40;64.86;98081.06;1731532;82;22128;-67
2022/03/31 10:15:22;;;;;;;33.88;20.65;;;;;;;14.46;64.15;98079.56;1732623;82;20905;-72
2022/03/31 10:17:56;;;;;;;26.05;19.37;;;;;;;14.52;63.85;98076.44;1733268;82;21035;-70
2022/03/31 10:20:26;;;;;;;27.87;20.60;;;;;;;14.61;63.85;98064.43;1733776;82;21434;-72
2022/03/31 10:25:52;;;;;;;29.37;20.45;;;;;;;14.79;63.04;98054.86;1693699;82;21020;-73
2022/03/31 10:28:23;;;;;;;28.35;19.20;;;;;;;14.86;63.12;98056.92;1733887;82;20880;-73
2022/03/31 10:31:01;;;;;;;26.93;19.75;;;;;;;14.92;63.45;98063.72;1729799;82;20988;-69
2022/03/31 10:33:42;;;;;;;31.12;19.55;;;;;;;14.98;62.55;98063.36;1737670;82;20928;-71
2022/03/31 10:36:18;;;;;;;28.27;19.07;;;;;;;14.94;61.73;98066.11;1715532;82;21452;-72
2022/03/31 10:39:02;;;;;;;29.67;20.90;;;;;;;14.97;61.37;98058.39;1714511;82;21219;-71
2022/03/31 10:41:32;;;;;;;34.53;20.77;;;;;;;15.04;60.92;98058.45;1713642;82;21015;-70
2022/03/31 10:44:21;;;;;;;27.10;18.87;;;;;;;15.17;61.20;98057.53;1714280;82;20948;-72
2022/03/31 10:47:06;;;;;;;33.90;21.35;;;;;;;15.31;60.80;98055.44;1732191;81;21554;-73
2022/03/31 10:49:59;;;;;;;28.52;18.82;;;;;;;15.41;60.71;98053.09;1733900;82;20957;-73
2022/03/31 10:52:32;;;;;;;33.15;19.57;;;;;;;15.56;60.16;98050.59;1728972;82;20995;-70
2022/03/31 10:55:14;;;;;;;32.83;17.67;;;;;;;15.68;58.21;98045.30;1734254;82;20947;-73
2022/03/31 10:57:46;;;;;;;24.65;16.82;;;;;;;15.74;56.74;98044.33;1732294;82;20972;-73
2022/03/31 11:00:16;;;;;;;30.60;17.85;;;;;;;15.85;56.22;98048.52;1734159;82;20905;-74
2022/03/31 11:02:49;;;;;;;33.00;17.95;;;;;;;15.92;55.41;98044.97;1734276;82;20904;-70
2022/03/31 11:05:19;;;;;;;42.13;18.27;;;;;;;15.96;54.70;98044.98;1734393;82;21158;-73
2022/03/31 11:07:53;;;;;;;33.58;17.23;;;;;;;16.01;54.12;98037.69;1731260;82;20892;-72
2022/03/31 11:10:26;;;;;;;30.05;16.12;;;;;;;16.08;54.24;98043.84;1731682;82;21035;-70
2022/03/31 11:12:59;;;;;;;34.50;15.32;;;;;;;16.22;54.66;98045.87;1733932;82;20905;-73
2022/03/31 11:15:29;;;;;;;23.77;15.25;;;;;;;16.33;53.71;98052.81;1733874;82;21035;-70
2022/03/31 11:18:04;;;;;;;31.00;17.27;;;;;;;16.31;53.20;98046.27;1733650;82;21262;-72
2022/03/31 11:20:37;;;;;;;25.55;15.05;;;;;;;16.18;53.25;98045.86;1729286;82;20960;-72
2022/03/31 11:23:08;;;;;;;31.33;15.88;;;;;;;16.09;52.65;98049.63;1733405;82;20868;-73
2022/03/31 11:25:44;;;;;;;33.13;15.30;;;;;;;16.02;52.26;98057.34;1734311;82;21386;-69
2022/03/31 11:28:20;;;;;;;26.48;16.62;;;;;;;16.02;52.69;98060.89;1733631;82;20955;-71
2022/03/31 11:30:51;;;;;;;22.85;14.70;;;;;;;16.09;52.82;98064.90;1734931;82;21134;-72
2022/03/31 11:33:25;;;;;;;26.70;15.83;;;;;;;16.21;52.37;98057.56;1713987;82;20991;-73
2022/03/31 11:35:55;;;;;;;23.60;14.95;;;;;;;16.33;52.26;98066.70;1731428;82;21514;-68
2022/03/31 11:38:27;;;;;;;25.77;14.68;;;;;;;16.44;52.23;98068.92;1734088;82;21008;-70
2022/03/31 11:40:58;;;;;;;27.05;14.63;;;;;;;16.57;51.15;98075.47;1734598;82;20888;-70
2022/03/31 11:43:29;;;;;;;19.32;12.65;;;;;;;16.64;51.05;98065.75;1734018;82;21139;-70
2022/03/31 11:45:57;;;;;;;21.02;12.98;;;;;;;16.70;50.85;98073.11;1734190;82;21445;-70
2022/03/31 11:48:45;;;;;;;26.53;14.77;;;;;;;16.72;50.33;98075.68;1732411;82;21456;-72